Time;durP1;ratioP1;P1;durP2;ratioP2;P2;SDS_P1;SDS_P2;PMS_P1;PMS_P2;Temp;Humidity;BMP_temperature;BMP_pressure;BME280_temperature;BME280_humidity;BME280_pressure;Samples;Min_cycle;Max_cycle;Signal;HPM_P1;HPM_P2
2023/05/27 00:01:29;;;;;;;14.52;4.07;;;;;;;;;;4979234;28;20092;-85
2023/05/27 00:03:55;;;;;;;17.50;5.22;;;;;;;;;;4972997;28;20477;-85
2023/05/27 00:06:21;;;;;;;13.70;4.22;;;;;;;;;;4973127;28;20042;-85
2023/05/27 00:08:47;;;;;;;13.70;4.40;;;;;;;;;;4970796;28;20733;-85
2023/05/27 00:11:13;;;;;;;14.95;3.97;;;;;;;;;;4977516;28;20043;-85
2023/05/27 00:13:39;;;;;;;10.48;3.55;;;;;;;;;;4996786;28;20039;-85
2023/05/27 00:16:05;;;;;;;11.45;4.30;;;;;;;;;;4979054;28;20046;-85
2023/05/27 00:18:32;;;;;;;11.63;4.15;;;;;;;;;;4976297;28;20534;-85
2023/05/27 00:20:59;;;;;;;13.52;4.30;;;;;;;;;;4974073;28;20057;-85
2023/05/27 00:23:25;;;;;;;11.32;4.32;;;;;;;;;;4973875;28;20035;-85
2023/05/27 00:25:51;;;;;;;13.55;4.20;;;;;;;;;;4981643;28;20505;-85
2023/05/27 00:28:18;;;;;;;11.70;4.32;;;;;;;;;;4966994;28;20203;-85
2023/05/27 00:30:44;;;;;;;9.35;4.00;;;;;;;;;;4995939;28;20050;-85
2023/05/27 00:33:10;;;;;;;14.45;4.25;;;;;;;;;;4980348;28;20049;-85
2023/05/27 00:35:36;;;;;;;8.95;4.10;;;;;;;;;;4979324;28;20404;-85
2023/05/27 00:38:02;;;;;;;11.02;4.47;;;;;;;;;;4980729;28;20078;-85
2023/05/27 00:40:30;;;;;;;11.60;4.40;;;;;;;;;;4970069;28;20475;-85
2023/05/27 00:42:56;;;;;;;13.45;4.50;;;;;;;;;;4992590;28;20045;-85
2023/05/27 00:45:22;;;;;;;10.27;3.95;;;;;;;;;;4978566;28;20038;-85
2023/05/27 00:47:49;;;;;;;11.32;3.88;;;;;;;;;;4959427;28;20067;-85
2023/05/27 00:50:17;;;;;;;9.52;3.33;;;;;;;;;;4975066;28;20054;-85
2023/05/27 00:52:43;;;;;;;4.80;2.55;;;;;;;;;;4962435;28;20042;-85
2023/05/27 00:55:10;;;;;;;6.13;3.13;;;;;;;;;;4979793;28;20125;-85
2023/05/27 00:57:37;;;;;;;8.25;3.20;;;;;;;;;;4976537;28;20092;-85
2023/05/27 01:00:07;;;;;;;11.52;3.95;;;;;;;;;;4970038;28;20062;-85
2023/05/27 01:02:33;;;;;;;9.27;3.95;;;;;;;;;;4958996;28;20125;-84
2023/05/27 01:04:59;;;;;;;11.32;4.40;;;;;;;;;;4990104;28;20114;-85
2023/05/27 01:07:42;;;;;;;8.85;4.28;;;;;;;;;;4973570;28;20042;-85
2023/05/27 01:10:08;;;;;;;15.23;4.70;;;;;;;;;;4972545;28;20413;-85
2023/05/27 01:12:49;;;;;;;10.30;4.25;;;;;;;;;;4978682;28;20439;-85
2023/05/27 01:15:15;;;;;;;5.88;3.40;;;;;;;;;;4985525;28;20389;-85
2023/05/27 01:17:42;;;;;;;6.35;3.05;;;;;;;;;;4965777;28;20138;-85
2023/05/27 01:20:10;;;;;;;7.22;2.97;;;;;;;;;;4962727;28;20051;-85
2023/05/27 01:22:37;;;;;;;9.80;3.67;;;6.80;99.90;;;;;;4958817;28;20386;-85
2023/05/27 01:25:03;;;;;;;7.07;2.95;;;;;;;;;;4951767;28;20047;-85
2023/05/27 01:27:30;;;;;;;8.77;3.40;;;;;;;;;;4962058;28;20148;-84
2023/05/27 01:29:56;;;;;;;8.57;3.60;;;;;;;;;;4936082;28;20557;-85
2023/05/27 01:32:28;;;;;;;16.42;5.10;;;;;;;;;;4974102;28;20043;-85
2023/05/27 01:34:59;;;;;;;8.13;3.60;;;;;;;;;;4944341;28;20043;-85
2023/05/27 01:37:29;;;;;;;5.25;2.78;;;6.50;99.90;;;;;;4954825;28;20081;-84
2023/05/27 01:39:56;;;;;;;6.22;3.33;;;;;;;;;;4964061;28;20046;-85
2023/05/27 01:42:22;;;;;;;9.80;4.20;;;;;;;;;;4944649;28;20051;-85
2023/05/27 01:44:48;;;;;;;8.32;3.78;;;;;;;;;;4943602;28;20672;-85
2023/05/27 01:47:14;;;;;;;8.57;3.78;;;;;;;;;;4972457;28;20093;-85
2023/05/27 01:49:40;;;;;;;7.60;3.75;;;;;;;;;;4955358;28;20074;-85
2023/05/27 01:52:08;;;;;;;8.60;3.35;;;;;;;;;;4976950;28;20043;-85
2023/05/27 01:54:35;;;;;;;14.82;4.10;;;;;;;;;;4956537;28;20053;-85
2023/05/27 01:57:01;;;;;;;12.15;4.60;;;;;;;;;;4952485;28;20047;-85
2023/05/27 01:59:27;;;;;;;11.18;4.30;;;;;;;;;;4960776;28;20509;-85
2023/05/27 02:01:53;;;;;;;11.68;4.18;;;;;;;;;;4960438;28;20141;-84
2023/05/27 02:04:19;;;;;;;6.72;3.78;;;;;;;;;;4949564;28;20134;-85
2023/05/27 02:06:45;;;;;;;5.00;3.03;;;;;;;;;;4941557;28;20470;-84
2023/05/27 02:09:12;;;;;;;9.77;3.33;;;;;;;;;;4958406;28;20053;-84
2023/05/27 02:11:38;;;;;;;9.80;3.20;;;;;;;;;;4952069;28;20047;-84
2023/05/27 02:14:05;;;;;;;4.00;2.80;;;;;;;;;;4958703;28;20437;-85
2023/05/27 02:16:33;;;;;;;8.43;3.72;;;;;;;;;;4966990;28;20054;-85
2023/05/27 02:19:00;;;;;;;7.32;3.47;;;;;;;;;;4978010;28;20508;-85
2023/05/27 02:21:26;;;;;;;4.45;2.85;;;;;;;;;;4983599;28;20054;-84
2023/05/27 02:23:52;;;;;;;5.72;2.50;;;;;;;;;;5002329;28;20058;-85
2023/05/27 02:26:18;;;;;;;12.88;4.20;;;;;;;;;;4987428;28;20091;-84
2023/05/27 02:28:44;;;;;;;8.20;4.05;;;;;;;;;;5005050;28;20486;-85
2023/05/27 02:31:10;;;;;;;11.98;4.80;;;;;;;;;;4988482;28;20515;-84
2023/05/27 02:33:36;;;;;;;10.38;4.55;;;;;;;;;;4964124;28;20038;-85
2023/05/27 02:36:02;;;;;;;9.90;4.30;;;;;;;;;;4984161;28;20046;-85
2023/05/27 02:38:28;;;;;;;7.97;4.07;;;;;;;;;;4977128;28;20040;-85
2023/05/27 02:40:54;;;;;;;5.88;4.03;;;;;;;;;;4991355;28;20038;-84
2023/05/27 02:43:20;;;;;;;12.60;5.22;;;;;;;;;;4982975;28;20454;-85
2023/05/27 02:45:46;;;;;;;8.60;6.30;;;;;;;;;;4977857;28;20042;-84
2023/05/27 02:48:12;;;;;;;10.20;5.13;;;;;;;;;;4998955;28;20053;-84
2023/05/27 02:50:39;;;;;;;8.57;4.55;;;;;;;;;;4993677;28;20042;-84
2023/05/27 02:53:05;;;;;;;12.68;4.47;;;;;;;;;;4998176;28;20050;-84
2023/05/27 02:55:31;;;;;;;7.93;4.57;;;;;;;;;;4982234;28;20044;-85
2023/05/27 02:57:57;;;;;;;9.20;4.47;;;;;;;;;;5001003;28;20045;-84
2023/05/27 03:00:23;;;;;;;11.48;4.22;;;;;;;;;;4979256;28;20069;-84
2023/05/27 03:02:49;;;;;;;13.63;4.60;;;;;;;;;;4976646;28;20455;-84
2023/05/27 03:05:15;;;;;;;11.48;4.85;;;;;;;;;;4978877;28;20042;-84
2023/05/27 03:07:41;;;;;;;7.97;4.50;;;;;;;;;;4966734;28;20471;-85
2023/05/27 03:10:07;;;;;;;10.38;4.85;;;;;;;;;;4993958;28;20053;-85
2023/05/27 03:12:33;;;;;;;9.90;4.53;;;;;;;;;;4961054;28;20080;-85
2023/05/27 03:14:59;;;;;;;15.02;4.97;;;;;;;;;;4982617;28;20049;-85
2023/05/27 03:17:26;;;;;;;8.10;4.82;;;;;;;;;;4980411;28;20575;-84
2023/05/27 03:19:52;;;;;;;10.50;4.45;;;;;;;;;;4973855;28;20101;-84
2023/05/27 03:22:18;;;;;;;10.70;5.07;;;;;;;;;;4983674;28;20041;-84
2023/05/27 03:24:44;;;;;;;9.43;4.47;;;;;;;;;;4986717;28;20046;-84
2023/05/27 03:27:10;;;;;;;12.43;5.32;;;;;;;;;;4961596;28;20038;-84
2023/05/27 03:29:36;;;;;;;11.10;5.07;;;;;;;;;;4998492;28;20080;-85
2023/05/27 03:32:02;;;;;;;9.75;5.55;;;;;;;;;;4978454;28;20077;-84
2023/05/27 03:34:28;;;;;;;9.55;4.72;;;;;;;;;;4992108;28;20100;-85
2023/05/27 03:36:54;;;;;;;13.05;4.72;;;;;;;;;;4977968;28;20049;-85
2023/05/27 03:39:20;;;;;;;13.85;5.40;;;;;;;;;;4981011;28;21277;-84
2023/05/27 03:41:47;;;;;;;14.63;5.03;;;;;;;;;;4972117;28;20046;-84
2023/05/27 03:44:13;;;;;;;11.55;4.65;;;;;;;;;;5009472;28;20116;-84
2023/05/27 03:46:39;;;;;;;10.23;4.32;;;;;;;;;;4975553;28;20566;-84
2023/05/27 03:49:06;;;;;;;14.45;5.57;;;;;;;;;;4984193;28;20050;-84
2023/05/27 03:51:32;;;;;;;8.80;4.90;;;;;;;;;;4984078;28;20064;-84
2023/05/27 03:53:58;;;;;;;14.73;5.18;;;;;;;;;;4974336;28;20508;-84
2023/05/27 03:56:24;;;;;;;10.52;4.75;;;;;;;;;;4979888;28;20048;-85
2023/05/27 03:58:50;;;;;;;7.93;4.27;;;;;;;;;;4982758;28;20485;-84
2023/05/27 04:01:16;;;;;;;14.70;5.43;;;;;;;;;;4974167;28;20049;-84
2023/05/27 04:03:43;;;;;;;12.45;5.03;;;;;;;;;;4983394;28;20053;-85
2023/05/27 04:06:09;;;;;;;14.02;4.95;;;;;;;;;;4977706;28;20528;-84
2023/05/27 04:08:37;;;;;;;11.93;5.20;;;;;;;;;;4995296;28;20076;-85
2023/05/27 04:11:03;;;;;;;10.50;4.65;;;;;;;;;;4980100;28;20192;-85
2023/05/27 04:13:29;;;;;;;12.10;6.82;;;;;;;;;;4980802;28;20046;-85
2023/05/27 04:15:56;;;;;;;13.20;4.82;;;;;;;;;;4987593;28;20041;-85
2023/05/27 04:18:22;;;;;;;11.70;5.60;;;;;;;;;;4978455;28;20066;-85
2023/05/27 04:20:50;;;;;;;10.93;5.65;;;;;;;;;;4978856;28;20042;-85
2023/05/27 04:23:16;;;;;;;13.30;5.60;;;;;;;;;;4983181;28;20125;-85
2023/05/27 04:25:42;;;;;;;11.30;5.40;;;;;;;;;;5003523;28;20357;-85
2023/05/27 04:28:09;;;;;;;10.15;4.70;;;;;;;;;;4980591;28;20034;-84
2023/05/27 04:30:35;;;;;;;13.60;5.05;;;;;;;;;;4978570;28;20046;-85
2023/05/27 04:33:02;;;;;;;10.70;5.00;;;;;;;;;;4988994;28;20499;-85
2023/05/27 04:35:30;;;;;;;13.40;4.53;;;;;;;;;;4990130;28;20467;-85
2023/05/27 04:37:58;;;;;;;16.52;4.97;;;;;;;;;;4986954;28;20050;-85
2023/05/27 04:40:25;;;;;;;11.32;5.15;;;;;;;;;;4980015;28;20046;-84
2023/05/27 04:42:51;;;;;;;14.13;4.80;;;;;;;;;;4986349;28;20033;-85
2023/05/27 04:45:18;;;;;;;11.00;4.70;;;;;;;;;;4970139;28;20050;-85
2023/05/27 04:47:44;;;;;;;15.10;5.35;;;;;;;;;;4984295;28;20088;-84
2023/05/27 04:50:10;;;;;;;20.48;6.35;;;;;;;;;;4976294;28;20047;-84
2023/05/27 04:52:41;;;;;;;14.95;5.60;;;;;;;;;;4987177;28;20046;-85
2023/05/27 04:55:08;;;;;;;15.50;5.15;;;;;;;;;;4980027;28;20050;-85
2023/05/27 04:57:34;;;;;;;19.60;6.13;;;;;;;;;;4976712;28;20407;-85
2023/05/27 05:02:34;;;;;;;17.50;5.13;;;;;;;;;;4985577;28;20510;-85
2023/05/27 05:05:04;;;;;;;21.38;6.50;;;;;;;;;;4978651;28;20046;-84
2023/05/27 05:07:31;;;;;;;19.88;5.90;;;;;;;;;;4989784;28;20164;-85
2023/05/27 05:09:57;;;;;;;14.85;5.28;;;;;;;;;;4986725;28;20120;-85
2023/05/27 05:12:23;;;;;;;24.42;5.82;;;;;;;;;;4972833;28;20043;-85
2023/05/27 05:14:49;;;;;;;15.55;5.32;;;;;;;;;;4992039;28;20050;-84
2023/05/27 05:17:15;;;;;;;14.63;5.75;;;;;;;;;;4979633;28;20054;-85
2023/05/27 05:19:41;;;;;;;13.70;5.38;;;;;;;;;;4974735;28;20272;-85
2023/05/27 05:22:07;;;;;;;16.65;5.68;;;;;;;;;;4981271;28;20485;-85
2023/05/27 05:24:33;;;;;;;14.77;5.90;;;;;;;;;;4979226;28;20499;-85
2023/05/27 05:27:00;;;;;;;22.90;5.47;;;;;;;;;;4983223;28;20046;-85
2023/05/27 05:29:26;;;;;;;16.85;6.07;;;;;;;;;;4976995;28;20046;-84
2023/05/27 05:31:52;;;;;;;18.00;5.43;;;;;;;;;;4982774;28;20058;-85
2023/05/27 05:34:18;;;;;;;15.80;5.65;;;;;;;;;;4987365;28;20049;-85
2023/05/27 05:36:44;;;;;;;16.85;6.18;;;;;;;;;;4972935;28;20106;-85
2023/05/27 05:39:10;;;;;;;21.88;5.32;;;;;;;;;;4968111;28;20417;-85
2023/05/27 05:41:36;;;;;;;15.32;5.85;;;;;;;;;;4987980;28;20053;-85
2023/05/27 05:44:02;;;;;;;20.98;5.00;;;;;;;;;;4978092;28;20617;-85
2023/05/27 05:46:27;;;;;;;18.40;5.93;;;10.20;99.90;;;;;;4984412;28;20073;-85
2023/05/27 05:48:53;;;;;;;20.38;5.10;;;;;;;;;;4977330;28;20045;-85
2023/05/27 05:51:19;;;;;;;15.07;4.55;;;;;;;;;;4978090;28;20120;-85
2023/05/27 05:53:45;;;;;;;20.55;5.25;;;;;;;;;;4981201;28;20569;-85
2023/05/27 05:56:11;;;;;;;10.93;4.28;;;11.80;99.90;;;;;;4998971;28;20133;-85
2023/05/27 05:58:36;;;;;;;15.15;4.53;;;12.80;99.90;;;;;;4993517;28;20038;-86
2023/05/27 06:01:04;;;;;;;12.05;4.13;;;;;;;;;;4973626;28;20121;-86
2023/05/27 06:03:30;;;;;;;11.65;4.18;;;;;;;;;;4999894;28;20392;-85
2023/05/27 06:05:55;;;;;;;14.63;4.15;;;15.10;99.90;;;;;;4987830;28;20073;-86
2023/05/27 06:08:21;;;;;;;9.82;3.67;;;15.80;99.90;;;;;;4971528;28;20134;-86
2023/05/27 06:10:46;;;;;;;16.00;3.78;;;15.70;99.90;;;;;;4963731;28;20042;-86
2023/05/27 06:13:12;;;;;;;18.08;5.43;;;16.40;99.90;;;;;;4988387;28;20081;-86
2023/05/27 06:15:38;;;;;;;12.18;3.47;;;16.70;99.90;;;;;;4998726;28;20052;-86
2023/05/27 06:18:04;;;;;;;13.65;3.80;;;17.20;99.90;;;;;;4974831;28;20050;-87
2023/05/27 06:20:30;;;;;;;18.63;3.75;;;18.00;99.90;;;;;;4979168;28;20030;-86
2023/05/27 06:22:55;;;;;;;17.58;3.67;;;18.50;99.90;;;;;;4958049;28;20105;-85
2023/05/27 06:25:21;;;;;;;18.60;4.18;;;19.90;99.90;;;;;;4973909;28;20042;-86
2023/05/27 06:27:47;;;;;;;12.60;2.90;;;18.80;99.90;;;;;;4978327;28;20046;-86
2023/05/27 06:30:12;;;;;;;13.02;3.25;;;18.30;99.90;;;;;;4980659;28;20046;-84
2023/05/27 06:32:38;;;;;;;15.13;3.60;;;18.70;99.90;;;;;;4972942;28;20045;-85
2023/05/27 06:35:04;;;;;;;25.05;3.95;;;18.20;99.90;;;;;;4978826;28;20046;-86
2023/05/27 06:37:32;;;;;;;19.27;3.55;;;18.30;99.90;;;;;;4978272;28;20121;-89
2023/05/27 06:39:58;;;;;;;16.98;3.22;;;17.90;99.90;;;;;;4964280;28;20543;-89
2023/05/27 06:42:23;;;;;;;16.05;3.78;;;16.70;99.90;;;;;;4962888;28;20480;-89
2023/05/27 06:44:50;;;;;;;14.27;3.60;;;;;;;;;;4970213;28;20538;-89
2023/05/27 06:47:15;;;;;;;14.35;3.50;;;;;;;;;;4957498;28;20047;-89
2023/05/27 06:49:41;;;;;;;16.38;3.70;;;;;;;;;;4976025;28;20054;-89
2023/05/27 06:52:07;;;;;;;10.95;3.13;;;;;;;;;;4955263;28;20485;-88
2023/05/27 06:54:34;;;;;;;17.65;4.05;;;;;;;;;;4959521;28;20046;-88
2023/05/27 06:57:00;;;;;;;17.45;3.70;;;;;;;;;;4968092;28;20722;-88
2023/05/27 06:59:26;;;;;;;14.43;3.80;;;;;;;;;;4966966;28;20050;-88
2023/05/27 07:01:52;;;;;;;17.48;3.85;;;;;;;;;;4966648;28;20405;-90
2023/05/27 07:04:18;;;;;;;12.70;4.25;;;;;;;;;;4961858;28;20118;-90
2023/05/27 07:06:44;;;;;;;16.85;4.55;;;;;;;;;;4973658;28;20039;-90
2023/05/27 07:09:11;;;;;;;15.85;4.47;;;;;;;;;;4982010;28;20450;-89
2023/05/27 07:11:37;;;;;;;11.68;3.60;;;;;;;;;;4976701;28;20488;-88
2023/05/27 07:14:03;;;;;;;17.42;3.63;;;;;;;;;;4972865;28;20034;-89
2023/05/27 07:16:29;;;;;;;18.50;3.83;;;;;;;;;;4982134;28;20634;-87
2023/05/27 07:18:55;;;;;;;27.42;4.03;;;;;;;;;;5008215;28;20641;-88
2023/05/27 07:21:21;;;;;;;13.23;3.40;;;;;;;;;;4980835;28;20057;-87
2023/05/27 07:23:47;;;;;;;18.60;3.72;;;;;;;;;;4996897;28;20081;-86
2023/05/27 07:26:12;;;;;;;18.15;3.88;;;;;;;;;;4990730;28;20053;-86
2023/05/27 07:28:38;;;;;;;21.13;4.90;;;;;;;;;;4981319;28;20065;-86
2023/05/27 07:31:04;;;;;;;16.27;3.72;;;14.10;99.90;;;;;;4964905;28;20045;-86
2023/05/27 07:33:31;;;;;;;18.48;3.78;;;;;;;;;;4984967;28;20507;-86
2023/05/27 07:35:57;;;;;;;17.77;3.33;;;;;;;;;;4982199;28;20061;-87
2023/05/27 07:38:23;;;;;;;14.38;3.92;;;;;;;;;;4991990;28;20454;-86
2023/05/27 07:40:49;;;;;;;17.65;3.78;;;;;;;;;;4996791;28;20042;-86
2023/05/27 07:43:15;;;;;;;27.38;5.15;;;;;;;;;;4978222;28;20177;-87
2023/05/27 07:45:41;;;;;;;14.75;4.47;;;;;;;;;;4976045;28;20073;-86
2023/05/27 07:48:07;;;;;;;14.55;3.53;;;;;;;;;;4969316;28;20037;-86
2023/05/27 07:50:33;;;;;;;12.63;3.03;;;;;;;;;;4997860;28;20421;-86
2023/05/27 07:52:59;;;;;;;15.18;4.53;;;;;;;;;;4967649;28;20042;-86
2023/05/27 07:55:25;;;;;;;17.52;3.60;;;;;;;;;;4979279;28;20578;-86
2023/05/27 07:57:51;;;;;;;17.33;4.03;;;;;;;;;;4985285;28;20503;-87
2023/05/27 08:00:17;;;;;;;19.15;4.57;;;14.40;99.90;;;;;;4979320;28;20099;-87
2023/05/27 08:02:43;;;;;;;21.92;4.85;;;;;;;;;;4961199;28;20492;-86
2023/05/27 08:05:10;;;;;;;17.15;3.90;;;;;;;;;;4986610;28;20044;-87
2023/05/27 08:07:36;;;;;;;20.13;4.28;;;;;;;;;;4981732;28;20042;-86
2023/05/27 08:10:02;;;;;;;13.18;4.95;;;;;;;;;;4996682;28;20046;-86
2023/05/27 08:12:28;;;;;;;13.50;4.10;;;;;;;;;;5006324;28;20041;-88
2023/05/27 08:14:54;;;;;;;20.75;4.47;;;;;;;;;;4973924;28;20404;-85
2023/05/27 08:17:20;;;;;;;11.43;4.05;;;;;;;;;;4989183;28;20049;-86
2023/05/27 08:19:46;;;;;;;15.20;4.70;;;;;;;;;;4996617;28;20674;-86
2023/05/27 08:22:12;;;;;;;14.27;4.53;;;;;;;;;;4983190;28;20413;-86
2023/05/27 08:24:38;;;;;;;16.95;5.00;;;;;;;;;;4984123;28;20038;-86
2023/05/27 08:27:05;;;;;;;17.75;4.10;;;;;;;;;;4960426;28;20042;-87
2023/05/27 08:29:32;;;;;;;17.33;4.15;;;;;;;;;;4974656;28;20133;-86
2023/05/27 08:31:58;;;;;;;16.20;4.43;;;;;;;;;;4967335;28;20049;-85
2023/05/27 08:34:27;;;;;;;12.52;4.00;;;;;;;;;;4989283;28;20562;-85
2023/05/27 08:36:53;;;;;;;19.30;5.00;;;;;;;;;;4986889;28;20395;-85
2023/05/27 08:39:20;;;;;;;15.38;4.32;;;;;;;;;;4987276;28;20125;-86
2023/05/27 08:41:46;;;;;;;22.58;6.53;;;;;;;;;;4967007;28;20614;-85
2023/05/27 08:44:12;;;;;;;20.70;5.03;;;;;;;;;;4978560;28;20078;-85
2023/05/27 08:46:38;;;;;;;22.17;4.53;;;;;;;;;;4978787;28;20377;-87
2023/05/27 08:49:06;;;;;;;16.08;5.35;;;15.10;99.90;;;;;;4984089;28;20456;-85
2023/05/27 08:51:32;;;;;;;17.30;3.85;;;15.20;99.90;;;;;;4978666;28;20046;-87
2023/05/27 08:53:58;;;;;;;19.35;4.82;;;;;;;;;;4980808;28;20048;-85
2023/05/27 08:56:25;;;;;;;23.92;4.53;;;;;;;;;;4983495;28;20038;-84
2023/05/27 08:58:53;;;;;;;20.30;4.85;;;;;;;;;;4980084;28;20069;-86
2023/05/27 09:01:21;;;;;;;12.23;3.85;;;;;;;;;;5005165;28;20049;-87
2023/05/27 09:03:47;;;;;;;13.18;3.80;;;;;;;;;;4989225;28;20045;-86
2023/05/27 09:06:14;;;;;;;16.92;4.80;;;;;;;;;;4979298;28;20057;-86
2023/05/27 09:08:40;;;;;;;22.83;4.47;;;;;;;;;;4980918;28;20077;-87
2023/05/27 09:11:07;;;;;;;19.00;3.47;;;;;;;;;;4987171;28;20543;-86
2023/05/27 09:13:33;;;;;;;20.48;5.50;;;;;;;;;;4972550;28;20045;-88
2023/05/27 09:16:04;;;;;;;19.05;3.97;;;15.70;99.90;;;;;;4977575;28;20046;-87
2023/05/27 09:18:32;;;;;;;15.43;4.97;;;15.80;99.90;;;;;;4983913;28;20500;-89
2023/05/27 09:20:59;;;;;;;15.98;4.13;;;;;;;;;;4986039;28;20048;-88
2023/05/27 09:23:25;;;;;;;13.02;4.47;;;;;;;;;;4984742;28;20038;-87
2023/05/27 09:25:52;;;;;;;15.63;4.68;;;15.70;99.90;;;;;;4992971;28;20042;-87
2023/05/27 09:28:25;;;;;;;18.38;4.45;;;15.80;99.90;;;;;;4971401;28;20410;-92
2023/05/27 09:30:59;;;;;;;18.52;4.22;;;15.80;99.90;;;;;;4978494;28;20056;-89
2023/05/27 09:33:26;;;;;;;13.10;4.53;;;;;;;;;;4998108;28;20045;-89
2023/05/27 09:35:52;;;;;;;15.90;4.38;;;;;;;;;;4990843;28;20058;-88
2023/05/27 09:38:18;;;;;;;15.18;3.95;;;;;;;;;;4979485;28;20525;-88
2023/05/27 09:40:44;;;;;;;14.43;4.20;;;16.10;99.90;;;;;;4983086;28;20421;-87
2023/05/27 09:43:15;;;;;;;19.15;4.00;;;16.20;99.90;;;;;;4988374;28;20048;-90
2023/05/27 09:45:41;;;;;;;15.88;5.07;;;;;;;;;;4964306;28;20069;-91
2023/05/27 09:48:08;;;;;;;22.77;4.03;;;;;;;;;;4988051;28;20133;-89
2023/05/27 09:50:34;;;;;;;17.17;4.00;;;16.40;99.90;;;;;;4980777;28;20056;-92
2023/05/27 09:53:01;;;;;;;21.58;5.10;;;16.30;99.90;;;;;;4961468;28;20516;-89
2023/05/27 09:55:28;;;;;;;16.00;4.15;;;16.60;99.90;;;;;;4985686;28;20176;-89
2023/05/27 09:57:54;;;;;;;19.02;3.95;;;;;;;;;;4979270;28;20037;-88
2023/05/27 10:00:21;;;;;;;19.63;4.18;;;;;;;;;;4993558;28;20037;-89
2023/05/27 10:02:48;;;;;;;17.95;5.72;;;16.60;99.90;;;;;;4976723;28;20096;-90
2023/05/27 10:05:16;;;;;;;15.02;4.03;;;16.90;99.90;;;;;;4980833;28;20046;-87
2023/05/27 10:07:46;;;;;;;11.73;4.05;;;16.80;99.90;;;;;;4982145;28;20038;-87
2023/05/27 10:10:14;;;;;;;15.48;4.40;;;17.00;99.90;;;;;;4981265;28;20146;-90
2023/05/27 10:12:42;;;;;;;16.60;4.30;;;17.00;99.90;;;;;;4989774;28;20048;-88
2023/05/27 10:15:09;;;;;;;22.23;5.32;;;;;;;;;;5000935;28;20046;-91
2023/05/27 10:17:49;;;;;;;18.85;4.32;;;17.10;99.90;;;;;;4965340;28;20420;-88
2023/05/27 10:20:48;;;;;;;13.32;4.38;;;17.10;99.90;;;;;;4994326;28;20389;-89
2023/05/27 10:23:16;;;;;;;15.27;4.68;;;17.10;99.90;;;;;;4953958;28;20084;-89
2023/05/27 10:25:53;;;;;;;15.35;4.68;;;17.50;99.90;;;;;;4985951;28;20403;-89
2023/05/27 10:28:31;;;;;;;12.70;3.90;;;17.40;99.90;;;;;;4984784;28;20040;-89
2023/05/27 10:31:03;;;;;;;14.60;4.53;;;17.50;99.90;;;;;;4968632;28;20417;-89
2023/05/27 10:33:30;;;;;;;17.15;4.25;;;17.70;99.90;;;;;;4988578;28;20148;-89
2023/05/27 10:35:56;;;;;;;15.55;4.82;;;;;;;;;;4990413;28;20053;-90
2023/05/27 10:38:23;;;;;;;19.80;3.53;;;;;;;;;;5001491;28;20569;-89
2023/05/27 10:41:00;;;;;;;14.48;3.80;;;17.60;99.90;;;;;;4966993;28;20068;-89
2023/05/27 10:43:27;;;;;;;17.85;4.18;;;17.70;99.90;;;;;;4973195;28;20042;-89
2023/05/27 10:46:08;;;;;;;15.35;4.68;;;17.70;99.90;;;;;;5004920;28;20498;-88
2023/05/27 10:48:35;;;;;;;17.92;4.07;;;;;;;;;;4985352;28;20046;-89
2023/05/27 10:51:01;;;;;;;21.50;4.97;;;;;;;;;;4983302;28;20138;-88
2023/05/27 10:53:27;;;;;;;16.10;4.13;;;;;;;;;;4975322;28;20046;-89
2023/05/27 10:55:54;;;;;;;14.93;3.58;;;;;;;;;;4991900;28;20120;-89
2023/05/27 10:58:21;;;;;;;11.40;3.67;;;;;;;;;;4984431;28;20492;-88
2023/05/27 11:00:51;;;;;;;12.60;3.80;;;18.10;99.90;;;;;;4983012;28;20042;-89
2023/05/27 11:03:25;;;;;;;18.30;5.32;;;18.10;99.90;;;;;;4992276;28;20041;-89
2023/05/27 11:06:02;;;;;;;10.70;3.47;;;18.10;99.90;;;;;;4974781;28;20096;-89
2023/05/27 11:08:28;;;;;;;12.63;4.53;;;;;;;;;;4990358;28;20472;-88
2023/05/27 11:11:08;;;;;;;12.02;3.85;;;18.10;99.90;;;;;;4973911;28;20412;-88
2023/05/27 11:13:44;;;;;;;14.45;4.32;;;18.00;99.90;;;;;;4989959;28;20085;-88
2023/05/27 11:16:11;;;;;;;13.25;3.88;;;18.20;99.90;;;;;;4975000;28;20053;-89
2023/05/27 11:18:42;;;;;;;15.35;4.20;;;18.40;99.90;;;;;;5001697;28;20145;-88
2023/05/27 11:21:10;;;;;;;12.27;4.07;;;18.40;99.90;;;;;;4982379;28;20427;-89
2023/05/27 11:23:47;;;;;;;14.05;3.70;;;18.30;99.90;;;;;;4996458;28;20087;-89
2023/05/27 11:26:16;;;;;;;12.80;3.90;;;18.20;99.90;;;;;;4985709;28;20050;-89
2023/05/27 11:28:50;;;;;;;14.13;3.80;;;18.30;99.90;;;;;;4990144;28;20511;-90
2023/05/27 11:31:16;;;;;;;17.02;3.63;;;;;;;;;;4967796;28;20041;-88
2023/05/27 11:33:46;;;;;;;15.80;3.95;;;;;;;;;;4975128;28;20041;-90
2023/05/27 11:36:14;;;;;;;14.20;4.70;;;18.40;99.90;;;;;;4965509;28;20518;-89
2023/05/27 11:38:50;;;;;;;12.00;3.47;;;18.40;99.90;;;;;;4969283;28;20037;-89
2023/05/27 11:41:17;;;;;;;17.30;4.88;;;;;;;;;;4971171;28;20129;-91
2023/05/27 11:44:04;;;;;;;10.60;3.95;;;18.50;99.90;;;;;;4983526;28;20129;-90
2023/05/27 11:46:49;;;;;;;18.73;4.72;;;18.50;99.90;;;;;;4989073;28;20041;-89
2023/05/27 11:49:17;;;;;;;14.48;4.03;;;18.30;99.90;;;;;;5006809;28;20483;-89
2023/05/27 11:51:55;;;;;;;14.45;4.03;;;18.60;99.90;;;;;;4988021;28;20033;-89
2023/05/27 11:54:26;;;;;;;10.15;3.60;;;18.70;99.90;;;;;;5007312;28;20139;-89
2023/05/27 11:56:53;;;;;;;16.00;3.70;;;18.70;99.90;;;;;;4988281;28;20574;-88
2023/05/27 11:59:20;;;;;;;14.13;3.70;;;18.70;99.90;;;;;;4987191;28;20046;-90
2023/05/27 12:01:46;;;;;;;15.05;3.78;;;;;;;;;;4971358;28;20042;-87
2023/05/27 12:04:12;;;;;;;10.30;3.42;;;;;;;;;;4976253;28;20400;-89
2023/05/27 12:06:38;;;;;;;13.95;4.03;;;;;;;;;;4969959;28;20095;-89
2023/05/27 12:09:05;;;;;;;12.45;4.05;;;18.90;99.90;;;;;;4998465;28;20044;-87
2023/05/27 12:11:31;;;;;;;15.00;4.03;;;18.80;99.90;;;;;;4971395;28;20077;-86
2023/05/27 12:13:57;;;;;;;11.07;3.30;;;18.90;99.90;;;;;;4971889;28;20147;-88
2023/05/27 12:16:23;;;;;;;10.88;3.60;;;;;;;;;;5002409;28;20046;-89
2023/05/27 12:18:49;;;;;;;15.75;4.18;;;;;;;;;;4975551;28;20049;-89
2023/05/27 12:21:16;;;;;;;19.65;4.50;;;18.80;99.90;;;;;;4976440;28;20092;-90
2023/05/27 12:23:42;;;;;;;11.55;3.25;;;;;;;;;;4967616;28;20041;-89
2023/05/27 12:26:09;;;;;;;13.00;4.57;;;;;;;;;;5001132;28;20080;-88
2023/05/27 12:28:35;;;;;;;18.20;4.10;;;;;;;;;;4986258;28;20415;-88
2023/05/27 12:31:02;;;;;;;10.50;3.60;;;;;;;;;;4980226;28;20049;-88
2023/05/27 12:33:28;;;;;;;12.90;3.72;;;;;;;;;;4981951;28;20063;-89
2023/05/27 12:35:54;;;;;;;14.02;4.35;;;;;;;;;;4973101;28;20104;-89
2023/05/27 12:38:20;;;;;;;12.73;3.63;;;;;;;;;;4997872;28;20369;-88
2023/05/27 12:40:46;;;;;;;11.27;3.30;;;;;;;;;;4980290;28;20053;-86
2023/05/27 12:43:11;;;;;;;12.40;3.97;;;19.20;99.90;;;;;;4975762;28;20065;-87
2023/05/27 12:45:37;;;;;;;14.68;4.05;;;;;;;;;;4982801;28;20041;-87
2023/05/27 12:48:04;;;;;;;11.60;3.55;;;19.20;99.90;;;;;;4977853;28;20068;-87
2023/05/27 12:50:30;;;;;;;12.35;3.08;;;;;;;;;;4964171;28;20539;-87
2023/05/27 12:52:56;;;;;;;13.10;3.67;;;;;;;;;;4981688;28;20038;-86
2023/05/27 12:55:23;;;;;;;9.20;3.35;;;;;;;;;;4985671;28;20054;-87
2023/05/27 12:57:50;;;;;;;14.57;3.40;;;19.20;99.90;;;;;;4969819;28;20042;-87
2023/05/27 13:00:18;;;;;;;17.63;4.28;;;19.30;99.90;;;;;;4980110;28;20049;-88
2023/05/27 13:02:44;;;;;;;16.83;3.75;;;;;;;;;;4969162;28;20042;-87
2023/05/27 13:05:10;;;;;;;11.13;4.18;;;;;;;;;;5000476;28;20092;-88
2023/05/27 13:07:40;;;;;;;16.58;4.13;;;;;;;;;;4981278;28;20034;-88
2023/05/27 13:10:10;;;;;;;17.10;4.57;;;19.60;99.90;;;;;;4965356;28;20125;-88
2023/05/27 13:12:36;;;;;;;15.73;4.00;;;;;;;;;;4984261;28;20064;-87
2023/05/27 13:15:03;;;;;;;14.80;3.83;;;;;;;;;;4983358;28;20050;-86
2023/05/27 13:17:29;;;;;;;15.55;5.03;;;19.50;99.90;;;;;;4970691;28;20054;-88
2023/05/27 13:19:55;;;;;;;16.35;3.95;;;19.50;99.90;;;;;;4980858;28;20055;-87
2023/05/27 13:22:21;;;;;;;17.00;4.15;;;;;;;;;;4986384;28;20488;-87
2023/05/27 13:24:47;;;;;;;13.85;3.45;;;19.60;99.90;;;;;;4986942;28;20042;-88
2023/05/27 13:27:12;;;;;;;16.23;3.60;;;19.60;99.90;;;;;;4972780;28;20486;-88
2023/05/27 13:29:40;;;;;;;12.30;3.17;;;19.60;99.90;;;;;;4969549;28;20057;-88
2023/05/27 13:32:07;;;;;;;11.18;3.25;;;;;;;;;;4986055;28;20046;-89
2023/05/27 13:34:34;;;;;;;13.13;3.85;;;;;;;;;;4983496;28;20121;-90
2023/05/27 13:42:05;;;;;;;11.63;3.33;;;19.60;99.90;;;;;;4872986;29;20396;-91
2023/05/27 13:49:22;;;;;;;15.30;3.60;;;19.70;99.90;;;;;;4799869;29;20140;-89
2023/05/27 13:56:28;;;;;;;12.18;3.35;;;19.70;99.90;;;;;;4726487;30;20072;-90
2023/05/27 13:59:09;;;;;;;12.35;3.70;;;;;;;;;;4791312;29;20060;-90
2023/05/27 14:01:36;;;;;;;13.25;3.65;;;19.90;99.90;;;;;;4903970;29;20036;-86
2023/05/27 14:04:01;;;;;;;11.27;3.60;;;19.90;99.90;;;;;;4979181;28;20420;-89
2023/05/27 14:06:27;;;;;;;14.95;4.57;;;19.90;99.90;;;;;;4969012;28;20042;-88
2023/05/27 14:08:53;;;;;;;11.20;3.33;;;20.00;99.90;;;;;;4986435;28;20827;-88
2023/05/27 14:11:21;;;;;;;14.93;3.70;;;;;;;;;;4971436;28;20081;-88
2023/05/27 14:13:48;;;;;;;8.82;3.40;;;;;;;;;;4998568;28;20087;-89
2023/05/27 14:16:14;;;;;;;11.77;3.55;;;20.10;99.90;;;;;;4979037;28;20056;-87